createdAt,value
2023-07-25T00:01:43.180Z,83.40
2023-07-25T00:04:15.612Z,83.14
2023-07-25T00:06:47.958Z,83.31
2023-07-25T00:09:20.503Z,83.15
2023-07-25T00:11:52.850Z,82.94
2023-07-25T00:14:27.819Z,82.72
2023-07-25T00:17:00.170Z,82.81
2023-07-25T00:19:33.019Z,83.20
2023-07-25T00:22:05.824Z,83.30
2023-07-25T00:24:38.360Z,83.47
2023-07-25T00:27:11.028Z,83.89
2023-07-25T00:29:46.100Z,83.78
2023-07-25T00:32:18.529Z,84.02
2023-07-25T00:34:50.845Z,83.79
2023-07-25T00:37:23.400Z,83.61
2023-07-25T00:39:59.596Z,83.85
2023-07-25T00:42:32.037Z,83.81
2023-07-25T00:45:07.068Z,83.73
2023-07-25T00:47:39.778Z,83.67
2023-07-25T00:50:13.940Z,83.90
2023-07-25T00:52:46.935Z,83.84
2023-07-25T00:55:19.579Z,84.08
2023-07-25T00:57:52.961Z,84.03
2023-07-25T01:00:27.959Z,84.27
2023-07-25T01:03:00.643Z,84.31
2023-07-25T01:05:37.786Z,84.35
2023-07-25T01:08:11.728Z,84.25
2023-07-25T01:10:44.000Z,84.15
2023-07-25T01:13:16.312Z,84.84
2023-07-25T01:15:52.097Z,84.88
2023-07-25T01:18:26.318Z,84.84
2023-07-25T01:20:58.967Z,84.84
2023-07-25T01:23:34.276Z,84.88
2023-07-25T01:26:09.177Z,84.90
2023-07-25T01:28:41.684Z,84.68
2023-07-25T01:31:14.149Z,84.27
2023-07-25T01:33:46.485Z,84.16
2023-07-25T01:36:18.806Z,84.06
2023-07-25T01:38:51.169Z,83.84
2023-07-25T01:41:25.955Z,84.10
2023-07-25T01:43:58.313Z,83.73
2023-07-25T01:46:30.731Z,84.08
2023-07-25T01:49:03.205Z,83.86
2023-07-25T01:51:35.601Z,84.40
2023-07-25T01:54:08.105Z,84.38
2023-07-25T01:56:42.954Z,84.43
2023-07-25T01:59:15.830Z,84.43
2023-07-25T02:01:48.185Z,84.12
2023-07-25T02:04:20.576Z,83.94
2023-07-25T02:06:52.863Z,84.15
2023-07-25T02:09:26.222Z,84.12
2023-07-25T02:12:01.457Z,83.84
2023-07-25T02:14:33.717Z,83.62
2023-07-25T02:17:06.776Z,83.46
2023-07-25T02:19:39.486Z,83.31
2023-07-25T02:22:11.853Z,83.25
2023-07-25T02:24:44.134Z,83.54
2023-07-25T02:27:19.216Z,83.58
2023-07-25T02:29:51.643Z,84.00
2023-07-25T02:32:23.880Z,84.43
2023-07-25T02:34:56.276Z,84.52
2023-07-25T02:37:29.731Z,84.56
2023-07-25T02:40:01.969Z,84.14
2023-07-25T02:42:36.865Z,84.44
2023-07-25T02:45:10.093Z,84.62
2023-07-25T02:47:43.598Z,84.53
2023-07-25T02:50:16.099Z,84.62
2023-07-25T02:52:48.375Z,84.35
2023-07-25T02:55:20.850Z,84.73
2023-07-25T02:57:55.771Z,85.38
2023-07-25T03:00:28.253Z,85.88
2023-07-25T03:03:00.678Z,86.42
2023-07-25T03:05:35.439Z,86.55
2023-07-25T03:08:08.260Z,86.32
2023-07-25T03:10:40.559Z,86.20
2023-07-25T03:13:15.742Z,86.27
2023-07-25T03:15:48.150Z,86.25
2023-07-25T03:18:21.592Z,86.41
2023-07-25T03:20:53.864Z,86.41
2023-07-25T03:23:26.292Z,86.30
2023-07-25T03:25:58.656Z,86.29
2023-07-25T03:28:33.858Z,85.96
2023-07-25T03:31:06.397Z,86.04
2023-07-25T03:33:38.779Z,86.11
2023-07-25T03:36:11.425Z,86.14
2023-07-25T03:38:43.889Z,86.05
2023-07-25T03:41:16.217Z,86.01
2023-07-25T03:43:51.097Z,85.91
2023-07-25T03:46:23.387Z,85.36
2023-07-25T03:48:55.809Z,85.42
2023-07-25T03:51:28.116Z,85.26
2023-07-25T03:54:00.386Z,85.03
2023-07-25T03:56:32.636Z,84.93
2023-07-25T03:59:07.770Z,84.31
2023-07-25T04:01:40.213Z,84.42
2023-07-25T04:04:13.786Z,84.49
2023-07-25T04:06:46.158Z,84.43
2023-07-25T04:09:18.668Z,84.81
2023-07-25T04:11:51.015Z,85.08
2023-07-25T04:14:25.947Z,85.01
2023-07-25T04:16:58.234Z,85.05
2023-07-25T04:19:30.628Z,85.00
2023-07-25T04:22:02.998Z,84.33
2023-07-25T04:24:35.386Z,84.52
2023-07-25T04:27:08.079Z,84.67
2023-07-25T04:29:43.026Z,84.41
2023-07-25T04:32:15.315Z,84.80
2023-07-25T04:34:47.686Z,84.97
2023-07-25T04:37:20.140Z,84.75
2023-07-25T04:39:52.548Z,84.26
2023-07-25T04:42:24.936Z,84.09
2023-07-25T04:44:59.846Z,83.53
2023-07-25T04:47:33.424Z,83.22
2023-07-25T04:50:06.032Z,83.15
2023-07-25T04:52:38.504Z,83.69
2023-07-25T04:55:12.149Z,83.56
2023-07-25T04:57:44.640Z,83.85
2023-07-25T05:00:20.110Z,83.96
2023-07-25T05:02:52.851Z,84.06
2023-07-25T05:05:25.269Z,84.25
2023-07-25T05:07:57.566Z,84.41
2023-07-25T05:10:29.828Z,84.54
2023-07-25T05:13:02.117Z,84.62
2023-07-25T05:15:38.753Z,85.01
2023-07-25T05:18:11.172Z,85.04
2023-07-25T05:20:43.747Z,85.03
2023-07-25T05:23:16.204Z,85.13
2023-07-25T05:25:50.417Z,84.97
2023-07-25T05:28:23.861Z,84.90
2023-07-25T05:30:58.818Z,84.66
2023-07-25T05:33:31.127Z,84.55
2023-07-25T05:36:07.030Z,84.58
2023-07-25T05:38:39.409Z,84.49
2023-07-25T05:41:11.891Z,84.16
2023-07-25T05:43:44.275Z,84.08
2023-07-25T05:46:21.454Z,83.37
2023-07-25T05:48:56.468Z,83.03
2023-07-25T05:51:28.832Z,82.22
2023-07-25T05:54:01.995Z,81.85
2023-07-25T05:56:34.370Z,80.95
2023-07-25T05:59:06.935Z,80.29
2023-07-25T06:01:43.609Z,80.33
2023-07-25T06:04:16.777Z,80.23
2023-07-25T06:06:49.111Z,79.99
2023-07-25T06:09:21.539Z,80.62
2023-07-25T06:11:54.644Z,79.17
2023-07-25T06:14:27.039Z,78.97
2023-07-25T06:17:01.936Z,77.96
2023-07-25T06:19:34.389Z,77.53
2023-07-25T06:22:06.895Z,77.33
2023-07-25T06:24:40.096Z,75.99
2023-07-25T06:27:12.885Z,75.84
2023-07-25T06:29:45.163Z,76.29
2023-07-25T06:32:20.237Z,76.11
2023-07-25T06:34:52.619Z,75.54
2023-07-25T06:37:25.031Z,74.46
2023-07-25T06:39:57.494Z,73.01
2023-07-25T06:42:29.798Z,72.44
2023-07-25T06:45:04.072Z,70.86
2023-07-25T06:47:39.121Z,68.40
2023-07-25T06:50:12.398Z,67.98
2023-07-25T06:52:44.768Z,67.16
2023-07-25T06:55:20.605Z,65.41
2023-07-25T06:57:53.294Z,63.38
2023-07-25T07:00:25.781Z,62.36
2023-07-25T07:03:00.814Z,62.83
2023-07-25T07:05:35.886Z,63.84
2023-07-25T07:08:10.046Z,62.56
2023-07-25T07:10:42.376Z,63.29
2023-07-25T07:13:14.749Z,62.48
2023-07-25T07:15:50.480Z,61.61
2023-07-25T07:18:26.532Z,62.00
2023-07-25T07:20:58.801Z,60.26
2023-07-25T07:23:31.108Z,60.31
2023-07-25T07:26:03.414Z,59.65
2023-07-25T07:28:35.810Z,60.28
2023-07-25T07:31:10.532Z,60.57
2023-07-25T07:33:45.523Z,60.23
2023-07-25T07:36:17.794Z,59.75
2023-07-25T07:38:50.190Z,59.17
2023-07-25T07:41:22.435Z,59.18
2023-07-25T07:43:54.940Z,59.39
2023-07-25T07:46:27.399Z,59.29
2023-07-25T07:49:03.038Z,59.37
2023-07-25T07:51:35.463Z,58.77
2023-07-25T07:54:07.941Z,58.23
2023-07-25T07:56:40.330Z,57.75
2023-07-25T07:59:13.103Z,57.51
2023-07-25T08:01:45.812Z,57.58
2023-07-25T08:04:20.763Z,58.15
2023-07-25T08:06:53.360Z,57.03
2023-07-25T08:09:26.082Z,55.81
2023-07-25T08:11:58.436Z,55.66
2023-07-25T08:14:30.930Z,54.96
2023-07-25T08:17:03.252Z,54.13
2023-07-25T08:19:38.104Z,52.94
2023-07-25T08:22:11.482Z,52.59
2023-07-25T08:24:44.501Z,52.57
2023-07-25T08:27:18.287Z,53.02
2023-07-25T08:29:50.825Z,52.84
2023-07-25T08:32:23.251Z,52.40
2023-07-25T08:34:58.331Z,51.97
2023-07-25T08:37:31.065Z,52.30
2023-07-25T08:40:03.582Z,52.00
2023-07-25T08:42:39.166Z,52.55
2023-07-25T08:45:12.613Z,52.50
2023-07-25T08:47:46.425Z,51.83
2023-07-25T08:50:22.802Z,50.38
2023-07-25T08:53:01.244Z,49.65
2023-07-25T08:55:33.614Z,50.81
2023-07-25T08:58:07.965Z,51.63
2023-07-25T09:00:41.336Z,52.38
2023-07-25T09:03:15.824Z,51.61
2023-07-25T09:05:51.160Z,51.97
2023-07-25T09:08:23.694Z,51.69
2023-07-25T09:10:58.185Z,50.06
2023-07-25T09:13:31.266Z,48.24
2023-07-25T09:16:03.655Z,49.74
2023-07-25T09:18:36.625Z,48.13
2023-07-25T09:21:13.327Z,46.92
2023-07-25T09:23:55.661Z,46.81
2023-07-25T09:26:30.504Z,46.61
2023-07-25T09:29:04.781Z,47.78
2023-07-25T09:31:48.130Z,46.53
2023-07-25T09:34:21.740Z,47.16
2023-07-25T09:36:57.024Z,47.47
2023-07-25T09:39:29.486Z,46.17
2023-07-25T09:42:01.945Z,45.76
2023-07-25T09:44:38.090Z,45.95
2023-07-25T09:47:13.322Z,45.07
2023-07-25T09:49:52.854Z,44.01
2023-07-25T09:52:28.232Z,44.50
2023-07-25T09:55:00.519Z,43.66
2023-07-25T09:57:33.770Z,43.36
2023-07-25T10:00:10.875Z,43.11
2023-07-25T10:02:43.543Z,43.01
2023-07-25T10:05:16.485Z,44.12
2023-07-25T10:07:55.451Z,44.69
2023-07-25T10:10:31.512Z,44.13
2023-07-25T10:13:04.255Z,44.46
2023-07-25T10:15:37.665Z,44.63
2023-07-25T10:18:23.624Z,44.35
2023-07-25T10:20:58.075Z,44.56
2023-07-25T10:23:39.330Z,43.09
2023-07-25T10:26:15.775Z,43.29
2023-07-25T10:28:49.258Z,43.91
2023-07-25T10:31:28.995Z,44.19
2023-07-25T10:34:05.550Z,44.06
2023-07-25T10:36:37.953Z,43.12
2023-07-25T10:39:29.542Z,41.98
2023-07-25T10:42:04.505Z,41.55
2023-07-25T10:44:41.926Z,41.76
2023-07-25T10:47:52.697Z,41.72
2023-07-25T10:50:30.221Z,42.98
2023-07-25T10:53:02.588Z,43.04
2023-07-25T10:55:37.768Z,42.24
2023-07-25T10:58:14.104Z,41.77
2023-07-25T11:00:47.043Z,42.03
2023-07-25T11:03:32.953Z,42.23
2023-07-25T11:06:35.167Z,42.99
2023-07-25T11:09:19.265Z,41.69
2023-07-25T11:11:57.659Z,42.73
2023-07-25T11:14:30.689Z,43.56
2023-07-25T11:17:02.953Z,44.04
2023-07-25T11:19:35.338Z,44.37
2023-07-25T11:22:13.933Z,43.54
2023-07-25T11:24:47.016Z,42.60
2023-07-25T11:27:23.818Z,42.90
2023-07-25T11:29:56.165Z,43.24
2023-07-25T11:32:33.240Z,43.44
2023-07-25T11:35:06.135Z,42.56
2023-07-25T11:37:38.845Z,43.83
2023-07-25T11:40:19.115Z,46.08
2023-07-25T11:42:55.246Z,47.43
2023-07-25T11:45:28.283Z,47.63
2023-07-25T11:48:01.872Z,47.73
2023-07-25T11:50:34.923Z,48.41
2023-07-25T11:53:08.982Z,48.78
2023-07-25T11:55:43.619Z,49.06
2023-07-25T11:58:24.036Z,48.36
2023-07-25T12:00:57.801Z,48.78
2023-07-25T12:03:32.103Z,49.25
2023-07-25T12:06:06.353Z,49.91
2023-07-25T12:08:40.915Z,50.50
2023-07-25T12:11:15.217Z,50.24
2023-07-25T12:13:52.641Z,49.10
2023-07-25T12:16:35.967Z,48.70
2023-07-25T12:19:10.902Z,48.22
2023-07-25T12:21:45.862Z,47.76
2023-07-25T12:24:21.194Z,47.75
2023-07-25T12:26:56.889Z,48.40
2023-07-25T12:29:32.157Z,48.62
2023-07-25T12:32:04.922Z,47.80
2023-07-25T12:34:37.198Z,47.50
2023-07-25T12:37:10.417Z,47.55
2023-07-25T12:39:43.056Z,46.84
2023-07-25T12:42:15.412Z,44.71
2023-07-25T12:44:50.302Z,44.26
2023-07-25T12:47:22.958Z,43.51
2023-07-25T12:49:55.189Z,42.76
2023-07-25T12:52:27.623Z,42.18
2023-07-25T12:54:59.865Z,41.64
2023-07-25T12:57:32.461Z,41.23
2023-07-25T13:00:09.304Z,41.21
2023-07-25T13:02:41.732Z,41.92
2023-07-25T13:05:14.425Z,42.11
2023-07-25T13:07:47.158Z,42.62
2023-07-25T13:10:19.537Z,42.24
2023-07-25T13:12:51.777Z,42.07
2023-07-25T13:15:26.773Z,40.83
2023-07-25T13:17:59.330Z,40.36
2023-07-25T13:20:31.941Z,40.78
2023-07-25T13:23:04.367Z,40.41
2023-07-25T13:25:36.794Z,39.33
2023-07-25T13:28:09.823Z,39.17
2023-07-25T13:30:45.732Z,39.43
2023-07-25T13:33:21.120Z,39.82
2023-07-25T13:35:53.455Z,40.66
2023-07-25T13:38:25.901Z,37.97
2023-07-25T13:40:58.622Z,37.53
2023-07-25T13:43:32.938Z,37.11
2023-07-25T13:46:09.061Z,35.92
2023-07-25T13:48:41.535Z,34.49
2023-07-25T13:51:13.926Z,33.48
2023-07-25T13:53:46.279Z,33.41
2023-07-25T13:56:18.645Z,34.18
2023-07-25T13:58:51.055Z,35.61
2023-07-25T14:01:26.029Z,38.12
2023-07-25T14:03:58.416Z,39.34
2023-07-25T14:06:30.815Z,40.06
2023-07-25T14:09:03.177Z,41.25
2023-07-25T14:11:35.733Z,41.91
2023-07-25T14:14:08.150Z,42.87
2023-07-25T14:16:43.046Z,44.44
2023-07-25T14:19:15.772Z,38.83
2023-07-25T14:21:48.665Z,33.76
2023-07-25T14:24:21.169Z,33.76
2023-07-25T14:26:53.577Z,34.34
2023-07-25T14:29:25.984Z,35.14
2023-07-25T14:32:00.911Z,37.61
2023-07-25T14:34:33.270Z,41.34
2023-07-25T14:37:05.607Z,42.22
2023-07-25T14:39:38.020Z,41.24
2023-07-25T14:42:10.792Z,41.19
2023-07-25T14:44:43.029Z,40.65
2023-07-25T14:47:18.189Z,35.56
2023-07-25T14:49:50.530Z,32.80
2023-07-25T14:52:22.983Z,31.30
2023-07-25T14:54:55.252Z,30.29
2023-07-25T14:57:27.727Z,30.61
2023-07-25T15:00:01.102Z,32.92
2023-07-25T15:02:36.117Z,35.16
2023-07-25T15:05:09.121Z,36.06
2023-07-25T15:07:42.601Z,35.87
2023-07-25T15:10:15.689Z,35.87
2023-07-25T15:12:48.180Z,35.25
2023-07-25T15:15:20.553Z,31.72
2023-07-25T15:17:56.552Z,27.70
2023-07-25T15:20:29.284Z,25.24
2023-07-25T15:23:01.682Z,24.06
2023-07-25T15:25:34.006Z,23.31
2023-07-25T15:28:06.602Z,22.66
2023-07-25T15:30:39.326Z,21.71
2023-07-25T15:33:14.749Z,21.73
2023-07-25T15:35:47.064Z,22.39
2023-07-25T15:38:19.472Z,26.59
2023-07-25T15:40:51.767Z,30.41
2023-07-25T15:43:25.342Z,32.79
2023-07-25T15:45:57.693Z,35.61
2023-07-25T15:48:32.664Z,36.68
2023-07-25T15:51:05.059Z,36.47
2023-07-25T15:53:37.343Z,34.18
2023-07-25T15:56:09.884Z,33.56
2023-07-25T15:58:43.235Z,34.40
2023-07-25T16:01:15.631Z,36.14
2023-07-25T16:03:51.562Z,37.84
2023-07-25T16:06:26.474Z,38.84
2023-07-25T16:09:00.012Z,40.05
2023-07-25T16:11:32.820Z,41.24
2023-07-25T16:14:05.857Z,40.78
2023-07-25T16:16:38.331Z,40.50
2023-07-25T16:19:13.427Z,41.03
2023-07-25T16:21:45.832Z,42.59
2023-07-25T16:24:18.197Z,43.43
2023-07-25T16:26:50.639Z,44.26
2023-07-25T16:29:23.395Z,45.00
2023-07-25T16:31:58.962Z,44.84
2023-07-25T16:34:34.804Z,45.41
2023-07-25T16:37:07.085Z,45.66
2023-07-25T16:39:39.379Z,45.13
2023-07-25T16:42:13.413Z,45.63
2023-07-25T16:44:45.709Z,45.83
2023-07-25T16:47:18.256Z,42.00
2023-07-25T16:49:53.091Z,40.16
2023-07-25T16:52:25.443Z,39.71
2023-07-25T16:54:57.781Z,36.33
2023-07-25T16:57:30.143Z,31.71
2023-07-25T17:00:02.621Z,29.62
2023-07-25T17:02:35.037Z,28.47
2023-07-25T17:05:10.583Z,27.62
2023-07-25T17:07:44.155Z,27.32
2023-07-25T17:10:19.094Z,26.76
2023-07-25T17:12:51.389Z,27.15
2023-07-25T17:15:23.835Z,27.38
2023-07-25T17:17:57.790Z,27.24
2023-07-25T17:20:32.814Z,27.41
2023-07-25T17:23:05.857Z,27.12
2023-07-25T17:25:39.855Z,27.29
2023-07-25T17:28:14.891Z,28.54
2023-07-25T17:30:47.494Z,29.69
2023-07-25T17:33:19.831Z,30.67
2023-07-25T17:35:54.654Z,30.96
2023-07-25T17:38:27.236Z,30.69
2023-07-25T17:40:59.718Z,30.94
2023-07-25T17:43:32.102Z,31.30
2023-07-25T17:46:04.390Z,31.25
2023-07-25T17:48:36.879Z,31.02
2023-07-25T17:51:11.757Z,31.03
2023-07-25T17:53:44.055Z,34.24
2023-07-25T17:56:16.498Z,37.95
2023-07-25T17:58:48.984Z,41.11
2023-07-25T18:01:21.312Z,42.41
2023-07-25T18:03:53.768Z,44.38
2023-07-25T18:06:28.661Z,45.26
2023-07-25T18:09:01.177Z,45.42
2023-07-25T18:11:33.872Z,45.39
2023-07-25T18:14:06.521Z,45.77
2023-07-25T18:16:38.930Z,46.56
2023-07-25T18:19:11.559Z,46.69
2023-07-25T18:21:46.400Z,47.42
2023-07-25T18:24:18.763Z,47.95
2023-07-25T18:26:51.216Z,48.52
2023-07-25T18:29:24.653Z,48.54
2023-07-25T18:31:57.034Z,47.75
2023-07-25T18:34:29.327Z,48.99
2023-07-25T18:37:04.186Z,49.55
2023-07-25T18:39:38.717Z,50.13
2023-07-25T18:42:11.737Z,50.59
2023-07-25T18:44:44.051Z,51.11
2023-07-25T18:47:28.557Z,51.83
2023-07-25T18:50:06.436Z,52.74
2023-07-25T18:52:41.434Z,53.55
2023-07-25T18:55:14.360Z,54.41
2023-07-25T18:57:47.721Z,55.30
2023-07-25T19:00:20.446Z,56.04
2023-07-25T19:02:52.937Z,57.03
2023-07-25T19:05:25.313Z,57.95
2023-07-25T19:08:01.102Z,58.77
2023-07-25T19:10:33.593Z,59.31
2023-07-25T19:13:05.940Z,59.89
2023-07-25T19:15:38.213Z,60.10
2023-07-25T19:18:10.720Z,60.02
2023-07-25T19:20:43.095Z,60.29
2023-07-25T19:23:26.126Z,60.26
2023-07-25T19:26:04.222Z,60.07
2023-07-25T19:28:36.804Z,59.77
2023-07-25T19:31:09.741Z,59.43
2023-07-25T19:33:42.109Z,59.67
2023-07-25T19:36:14.499Z,59.72
2023-07-25T19:38:49.660Z,59.54
2023-07-25T19:41:22.807Z,59.31
2023-07-25T19:43:55.388Z,58.70
2023-07-25T19:46:27.723Z,58.80
2023-07-25T19:49:00.341Z,58.43
2023-07-25T19:51:32.653Z,58.26
2023-07-25T19:54:07.880Z,58.12
2023-07-25T19:56:41.736Z,57.92
2023-07-25T19:59:14.227Z,58.14
2023-07-25T20:01:46.801Z,58.25
2023-07-25T20:04:19.312Z,58.19
2023-07-25T20:06:52.112Z,58.32
2023-07-25T20:09:27.312Z,58.60
2023-07-25T20:11:59.565Z,58.75
2023-07-25T20:14:31.837Z,58.77
2023-07-25T20:17:04.924Z,58.84
2023-07-25T20:19:37.402Z,59.05
2023-07-25T20:22:10.414Z,59.32
2023-07-25T20:24:45.367Z,59.48
2023-07-25T20:27:18.366Z,59.63
2023-07-25T20:29:50.659Z,59.83
2023-07-25T20:32:23.061Z,60.18
2023-07-25T20:34:55.424Z,60.77
2023-07-25T20:37:29.193Z,61.00
2023-07-25T20:40:07.160Z,61.49
2023-07-25T20:42:40.910Z,61.77
2023-07-25T20:45:15.623Z,61.77
2023-07-25T20:47:48.897Z,62.19
2023-07-25T20:50:21.480Z,62.68
2023-07-25T20:52:55.235Z,63.23
2023-07-25T20:55:30.513Z,63.56
2023-07-25T20:58:02.921Z,63.84
2023-07-25T21:00:35.222Z,63.33
2023-07-25T21:03:07.663Z,63.52
2023-07-25T21:05:43.553Z,63.67
2023-07-25T21:08:16.895Z,63.92
2023-07-25T21:10:53.179Z,64.02
2023-07-25T21:13:25.491Z,64.42
2023-07-25T21:15:58.032Z,64.26
2023-07-25T21:18:31.537Z,64.73
2023-07-25T21:21:04.003Z,64.91
2023-07-25T21:23:37.413Z,65.07
2023-07-25T21:26:12.586Z,64.87
2023-07-25T21:28:44.961Z,65.41
2023-07-25T21:31:17.363Z,65.76
2023-07-25T21:33:49.615Z,65.81
2023-07-25T21:36:21.947Z,65.65
2023-07-25T21:38:56.034Z,65.97
2023-07-25T21:41:31.127Z,66.52
2023-07-25T21:44:03.895Z,67.19
2023-07-25T21:46:38.361Z,67.33
2023-07-25T21:49:15.190Z,67.46
2023-07-25T21:51:47.453Z,67.55
2023-07-25T21:54:19.864Z,67.69
2023-07-25T21:56:54.849Z,67.82
2023-07-25T21:59:27.307Z,68.28
2023-07-25T22:01:59.632Z,68.67
2023-07-25T22:04:32.044Z,68.80
2023-07-25T22:07:05.339Z,68.78
2023-07-25T22:09:37.621Z,69.18
2023-07-25T22:12:14.164Z,69.20
2023-07-25T22:14:46.422Z,69.45
2023-07-25T22:17:18.970Z,70.24
2023-07-25T22:19:51.418Z,70.23
2023-07-25T22:22:23.756Z,70.66
2023-07-25T22:24:59.135Z,70.78
2023-07-25T22:27:34.289Z,71.11
2023-07-25T22:30:06.872Z,71.04
2023-07-25T22:32:39.367Z,71.53
2023-07-25T22:35:12.604Z,72.14
2023-07-25T22:37:46.273Z,72.42
2023-07-25T22:40:18.534Z,72.47
2023-07-25T22:42:53.461Z,72.72
2023-07-25T22:45:26.463Z,72.86
2023-07-25T22:47:59.082Z,73.01
2023-07-25T22:50:31.445Z,73.25
2023-07-25T22:53:03.770Z,73.29
2023-07-25T22:55:37.245Z,73.55
2023-07-25T22:58:12.996Z,73.44
2023-07-25T23:00:45.429Z,73.55
2023-07-25T23:03:18.203Z,73.50
2023-07-25T23:05:51.253Z,73.53
2023-07-25T23:08:23.759Z,73.67
2023-07-25T23:10:58.618Z,73.66
2023-07-25T23:13:33.633Z,73.43
2023-07-25T23:16:06.047Z,73.43
2023-07-25T23:18:38.549Z,73.17
2023-07-25T23:21:10.910Z,73.42
2023-07-25T23:23:43.736Z,73.47
2023-07-25T23:26:16.907Z,72.99
2023-07-25T23:28:51.889Z,72.94
2023-07-25T23:31:24.267Z,73.37
2023-07-25T23:33:56.571Z,73.45
2023-07-25T23:36:28.957Z,73.21
2023-07-25T23:39:01.472Z,73.31
2023-07-25T23:41:35.541Z,73.57
2023-07-25T23:44:11.069Z,73.63
2023-07-25T23:46:43.725Z,73.79
2023-07-25T23:49:16.321Z,73.62
2023-07-25T23:51:48.667Z,73.53
2023-07-25T23:54:21.001Z,73.41
2023-07-25T23:56:54.126Z,73.25
2023-07-25T23:59:29.273Z,73.31
